Etusivu
METAR-TAF:

METAR-TAF

Lentoasemat :

West Memphis, Arkansas, Yhdysvallat

Leveyspiiri: 35-08N, Pituuspiiri: 090-14W, korkeus merenpinnasta: 65 m

Tämänhetkinen sää

Tämä raportti tehtiin 1 tunti ja 1 minuuttia sitten, kello 10.53 UTC
Tuuli 12 kn etelästä/kaakosta
Lämpötila 9°C
Kosteus 100%
Ilmanpaine 1010 hPa
Näkyvyys: 8.0 km
Pilvistä 2700 ft:n korkeudessa
heikkoa sadetta, utua

METAR: KAWM 241053Z AUTO 16012KT 5SM -RA BR OVC027 09/09 A2983 RMK AO2 RAE0956B14 SLP101 P0001 T00940089

Aika: 05:54 (11:54 UTC)


TAF: puuttuu

Säähavainnot ja -ennusteet yli 4000 lentoasemalta (METAR- ja TAF-raportit).

Käytössä olevat sääasemat on merkitty karttaan keltaisilla ja punaisilla pisteillä.

Aseta hiiri pisteen päälle nähdäksesi sääaseman nimen.

Klikkaa sitten nähdäksesi säähavainnot ja -ennusteet.

Kartan vaihtaminen: klikkaa mustalla rastilla varustettuja vihreitä pisteitä, niin voit zoomata sisään; viivalla varustettua vihreää pistettä, niin voit zoomata ulos tai vihreitä nuolia, niin pääset viereisille kartoille.


METAR-TAF: